Aviation Digital Data Service (ADDS)

Output produced by METARs form (0110 UTC 23 March 2019)
found at http://www.aviationweather.gov/metar/data/
 
Forecast for: KSAT (SAN ANTONIO , TX, US)
Text: KSAT 222335Z 2300/2406 16013KT P6SM BKN060 BKN250
Forecast period: 0000 to 1000 UTC 23 March 2019
Forecast type: FROM: standard forecast or significant change
Winds: from the SSE (160 degrees) at 15 MPH (13 knots; 6.7 m/s)
Visibility: 6 or more miles 10+ km)
Ceiling: 6000 feet AGL
Clouds: broken clouds at 6000 feet AGL
broken clouds at 25000 feet AGL
Weather: no significant weather forecast for this period
Text: FM231000 16008KT P6SM VCSH BKN025 OVC040
Forecast period: 1000 UTC 23 March 2019 to 0100 UTC 24 March 2019
Forecast type: FROM: standard forecast or significant change
Winds: from the SSE (160 degrees) at 9 MPH (8 knots; 4.1 m/s)
Visibility: 6 or more miles 10+ km)
Ceiling: 2500 feet AGL
Clouds: broken clouds at 2500 feet AGL
overcast cloud deck at 4000 feet AGL
Weather: VCSH  (showers in vicinity)
Text: FM240100 16008KT P6SM BKN025 OVC040
Forecast period: 0100 to 0600 UTC 24 March 2019
Forecast type: FROM: standard forecast or significant change
Winds: from the SSE (160 degrees) at 9 MPH (8 knots; 4.1 m/s)
Visibility: 6 or more miles 10+ km)
Ceiling: 2500 feet AGL
Clouds: broken clouds at 2500 feet AGL
overcast cloud deck at 4000 feet AGL
Weather: no significant weather forecast for this period